Terminal Aerodrome Forecast
Issued by NWS

Home | Current Version | Previous Version | Text Only | Print | Product List | Glossary On
Versions: 1 2 3 4 5 6 7 8 9 10 11 12 13 14
000
FTUS42 TJSJ 161100
TAFKPK
TAF
TKPK 161139Z 1612/1712 07007KT P6SM VCSH FEW018 SCT035
     FM161430 09012KT P6SM FEW020 SCT040
     FM162300 07007KT P6SM FEW025=

USA.gov is the U.S. government's official web portal to all federal, state and local government web resources and services.